Time;durP1;ratioP1;P1;durP2;ratioP2;P2;SDS_P1;SDS_P2;PMS_P1;PMS_P2;Temp;Humidity;BMP_temperature;BMP_pressure;BME280_temperature;BME280_humidity;BME280_pressure;Samples;Min_cycle;Max_cycle;Signal;HPM_P1;HPM_P2
2023/12/20 00:00:59;;;;;;;0.50;0.43;;;;;;;37.66;22.81;100035.84;7421453;19;20017;-80
2023/12/20 00:03:25;;;;;;;0.20;0.20;;;;;;;29.56;26.99;100039.34;7422114;19;20022;-80
2023/12/20 00:05:51;;;;;;;2.83;0.55;;;;;;;15.99;64.30;100076.81;7422252;19;20039;-81
2023/12/20 00:08:17;;;;;;;0.10;0.10;;;;;;;33.27;30.64;100045.09;7420131;19;20070;-79
2023/12/20 00:10:44;;;;;;;0.25;0.25;;;;;;;36.50;25.49;100040.81;7423135;19;20007;-80
2023/12/20 00:13:11;;;;;;;0.10;0.10;;;;;;;37.36;23.87;100035.28;7422386;19;20027;-80
2023/12/20 00:15:37;;;;;;;0.10;0.00;;;;;;;37.93;23.27;100026.78;7423178;19;20071;-79
2023/12/20 00:18:04;;;;;;;0.20;0.20;;;;;;;38.20;22.87;100023.53;7422642;19;20020;-79
2023/12/20 00:20:30;;;;;;;4.28;1.50;;;;;;;38.28;22.60;100026.78;7421883;19;20021;-79
2023/12/20 00:23:00;;;;;;;0.17;0.17;;;;;;;38.23;22.38;100030.91;7422097;19;20476;-80
2023/12/20 00:25:26;;;;;;;0.10;0.00;;;;;;;38.45;22.44;100031.81;7423041;19;20103;-80
2023/12/20 00:27:52;;;;;;;19.08;1.25;;;;;;;38.37;22.33;100037.31;7421669;19;20497;-80
2023/12/20 00:30:19;;;;;;;0.15;0.13;;;;;;;38.40;21.90;100035.97;7421887;19;20018;-79
2023/12/20 00:32:48;;;;;;;0.13;0.13;;;;;;;38.64;21.59;100039.81;7420519;19;20002;-79
2023/12/20 00:35:15;;;;;;;0.88;0.82;;;;;;;38.82;21.85;100028.13;7393880;19;20375;-80
2023/12/20 00:37:42;;;;;;;4.40;0.47;;;;;;;38.87;21.14;100023.94;7392334;19;20014;-80
2023/12/20 00:40:09;;;;;;;0.10;0.00;;;;;;;38.91;21.17;100017.50;7393529;19;20030;-80
2023/12/20 00:42:38;;;;;;;0.10;0.10;;;;;;;38.98;21.01;100016.31;7393694;19;20016;-80
2023/12/20 00:45:05;;;;;;;1.67;0.75;;;;;;;39.57;20.72;100025.69;7393528;19;20010;-80
2023/12/20 00:47:31;;;;;;;4.13;1.52;;;;;;;39.20;21.26;100014.22;7391870;19;20019;-80
2023/12/20 00:49:58;;;;;;;0.10;0.10;;;;;;;39.05;20.64;100015.09;7394228;19;20015;-80
2023/12/20 00:52:24;;;;;;;0.50;0.50;;;;;;;38.96;21.11;100002.44;7392911;19;20446;-79
2023/12/20 00:54:50;;;;;;;7.90;0.57;;;;;;;39.05;21.02;100003.47;7393127;19;20014;-80
2023/12/20 00:57:16;;;;;;;7.97;0.85;;;;;;;39.25;20.92;99998.34;7393090;19;20003;-79
2023/12/20 00:59:42;;;;;;;0.10;0.08;;;;;;;39.22;20.94;99990.97;7391478;19;20035;-80
2023/12/20 01:02:09;;;;;;;0.43;0.10;;;;;;;38.95;21.13;100000.91;7391956;19;20021;-81
2023/12/20 01:04:35;;;;;;;0.20;0.10;;;;;;;38.70;20.77;99992.72;7391492;19;20007;-80
2023/12/20 01:07:02;;;;;;;0.10;0.10;;;;;;;38.60;20.77;100001.81;7379589;19;20112;-80
2023/12/20 01:09:28;;;;;;;0.52;0.32;;;;;;;38.74;20.86;99992.88;7391126;19;20010;-80
2023/12/20 01:11:54;;;;;;;0.45;0.45;;;;;;;38.81;20.75;99980.03;7392743;19;20003;-80
2023/12/20 01:14:20;;;;;;;6.70;0.38;;;;;;;38.62;20.96;99981.50;7393747;19;20018;-80
2023/12/20 01:16:47;;;;;;;5.38;0.85;;;;;;;38.64;20.77;99978.66;7391154;19;20003;-80
2023/12/20 01:19:13;;;;;;;0.10;0.00;;;;;;;38.59;21.22;99974.13;7393371;19;20022;-80
2023/12/20 01:21:40;;;;;;;1.20;0.63;;;;;;;38.55;21.19;99968.13;7390973;19;20007;-80
2023/12/20 01:24:06;;;;;;;15.60;1.27;;;;;;;38.54;21.26;99984.13;7391184;19;20078;-80
2023/12/20 01:26:32;;;;;;;0.73;0.17;;;;;;;38.58;21.14;99993.00;7391454;19;20019;-80
2023/12/20 01:28:58;;;;;;;0.63;0.35;;;;;;;38.62;21.10;99993.13;7391058;19;20035;-80
2023/12/20 01:31:24;;;;;;;0.10;0.10;;;;;;;38.97;20.93;99998.06;7390608;19;20024;-80
2023/12/20 01:33:50;;;;;;;2.05;0.30;;;;;;;39.29;20.45;100004.31;7392660;19;20346;-80
2023/12/20 01:36:16;;;;;;;4.78;0.20;;;;;;;38.94;20.66;99984.84;7392169;19;20015;-80
2023/12/20 01:38:42;;;;;;;0.20;0.20;;;;;;;39.05;21.16;99992.53;7391757;19;20472;-80
2023/12/20 01:41:08;;;;;;;3.10;0.40;;;;;;;39.05;20.71;100003.47;7390224;19;20014;-80
2023/12/20 01:43:34;;;;;;;0.45;0.30;;;;;;;39.20;20.65;99999.66;7389179;19;20011;-80
2023/12/20 01:46:01;;;;;;;0.75;0.45;;;;;;;39.33;20.10;99992.81;7389321;19;20517;-79
2023/12/20 01:48:28;;;;;;;3.30;0.85;;;;;;;39.14;20.66;99991.41;7389146;19;20011;-79
2023/12/20 01:50:54;;;;;;;7.80;0.85;;;;;;;38.99;20.66;99994.47;7392286;19;20070;-80
2023/12/20 01:53:24;;;;;;;0.10;0.10;;;;;;;38.64;20.69;99984.47;7390285;19;20010;-79
2023/12/20 01:55:54;;;;;;;0.10;0.10;;;;;;;38.54;20.74;99975.38;7392184;19;20078;-80
2023/12/20 01:58:21;;;;;;;0.10;0.10;;;;;;;38.53;20.61;99973.88;7390184;19;20513;-80
2023/12/20 02:00:48;;;;;;;0.13;0.13;;;;;;;38.53;20.64;99973.16;7392004;19;20018;-80
2023/12/20 02:03:16;;;;;;;0.25;0.15;;;;;;;27.95;30.16;99998.81;7389436;19;20007;-80
2023/12/20 02:05:43;;;;;;;0.10;0.10;;;;;;;36.41;22.45;99970.03;7391204;19;20039;-80
2023/12/20 02:08:09;;;;;;;0.17;0.17;;;;;;;37.02;21.84;99959.00;7391043;19;20014;-79
2023/12/20 02:10:36;;;;;;;5.68;0.65;;;;;;;17.59;42.28;99991.47;7390796;19;20007;-80
2023/12/20 02:13:02;;;;;;;0.10;0.10;;;;;;;10.72;100.00;100009.91;7389103;19;20017;-80
2023/12/20 02:15:28;;;;;;;4.60;0.40;;;;;;;10.49;100.00;100008.66;7389180;19;20010;-81
2023/12/20 02:17:54;;;;;;;11.27;0.75;;;;;;;10.45;100.00;99999.72;7392150;19;20034;-81
2023/12/20 02:20:20;;;;;;;0.22;0.15;;;;;;;10.25;100.00;99996.69;7389334;19;20109;-79
2023/12/20 02:22:46;;;;;;;0.47;0.47;;;;;;;11.04;100.00;99997.19;7390228;19;20006;-80
2023/12/20 02:25:13;;;;;;;0.10;0.10;;;;;;;10.92;100.00;100000.97;7389402;19;20113;-81
2023/12/20 02:27:39;;;;;;;0.20;0.20;;;;;;;10.90;100.00;100007.03;7390212;19;20031;-81
2023/12/20 02:30:06;;;;;;;0.10;0.08;;;;;;;10.06;100.00;100011.88;7391451;19;20009;-80
2023/12/20 02:32:32;;;;;;;0.57;0.38;;;;;;;10.33;100.00;100022.94;7390072;19;20002;-81
2023/12/20 02:34:58;;;;;;;1.20;0.63;;;;;;;9.73;100.00;100013.81;7389153;19;20011;-81
2023/12/20 02:37:24;;;;;;;0.95;0.65;;;;;;;10.57;100.00;100009.06;7387342;19;20405;-81
2023/12/20 02:39:50;;;;;;;0.10;0.10;;;;;;;10.39;100.00;100014.75;7387867;19;20055;-81
2023/12/20 02:42:17;;;;;;;4.90;0.50;;;;;;;10.12;100.00;100018.38;7389120;19;20011;-81
2023/12/20 02:44:43;;;;;;;1.67;0.13;;;;;;;10.24;100.00;99997.94;7389529;19;20044;-81
2023/12/20 02:47:09;;;;;;;1.20;0.80;;;;;;;9.84;100.00;100003.75;7388391;19;20023;-81
2023/12/20 02:49:35;;;;;;;0.55;0.38;;;;;;;8.87;100.00;100004.84;7388017;19;20008;-80
2023/12/20 02:52:02;;;;;;;0.73;0.38;;;;;;;8.08;100.00;100002.06;7387263;19;20022;-81
2023/12/20 02:54:28;;;;;;;0.10;0.10;;;;;;;18.55;100.00;99987.44;7389192;19;20363;-81
2023/12/20 02:56:54;;;;;;;0.43;0.30;;;;;;;34.88;34.45;99950.13;7389354;19;20010;-81
2023/12/20 02:59:20;;;;;;;3.10;0.20;;;;;;;16.32;91.84;99981.31;7389472;19;20452;-80
2023/12/20 03:01:46;;;;;;;2.05;0.65;;;;;;;13.80;100.00;99977.56;7388847;19;20007;-81
2023/12/20 03:04:12;;;;;;;2.97;1.17;;;;;;;12.74;100.00;99995.13;7388964;19;20477;-80
2023/12/20 03:06:39;;;;;;;2.28;0.10;;;;;;;11.93;100.00;99994.88;7386502;19;20015;-80
2023/12/20 03:09:05;;;;;;;1.38;0.30;;;;;;;11.98;100.00;100005.38;7389153;19;20025;-80
2023/12/20 03:11:31;;;;;;;0.22;0.22;;;;;;;11.96;100.00;99996.69;7389102;19;20373;-81
2023/12/20 03:13:58;;;;;;;0.52;0.43;;;;;;;12.08;100.00;99990.03;7389363;19;20073;-81
2023/12/20 03:16:24;;;;;;;0.47;0.43;;;;;;;12.24;100.00;100001.97;7387611;19;20556;-80
2023/12/20 03:18:50;;;;;;;1.23;0.40;;;;;;;12.30;100.00;99994.47;7390202;19;20006;-81
2023/12/20 03:21:16;;;;;;;0.80;0.20;;;;;;;12.29;100.00;99984.53;7387847;19;20684;-81
2023/12/20 03:23:43;;;;;;;7.47;0.80;;;;;;;12.38;100.00;99995.59;7387847;19;20090;-81
2023/12/20 03:26:09;;;;;;;0.10;0.10;;;;;;;12.00;100.00;99983.31;7388572;19;20025;-80
2023/12/20 03:28:36;;;;;;;3.00;0.80;;;;;;;12.46;100.00;99991.16;7387702;19;20007;-81
2023/12/20 03:31:03;;;;;;;1.10;0.35;;;;;;;12.53;100.00;99990.75;7386148;19;20398;-81
2023/12/20 03:33:29;;;;;;;1.38;0.55;;;;;;;12.52;100.00;99994.78;7384374;19;20006;-81
2023/12/20 03:35:55;;;;;;;0.57;0.20;;;;;;;12.58;100.00;99987.28;7382787;19;20360;-81
2023/12/20 03:38:23;;;;;;;0.10;0.10;;;;;;;12.63;100.00;99986.56;7383277;19;20014;-81
2023/12/20 03:40:50;;;;;;;13.88;0.63;;;;;;;12.64;100.00;99990.91;7384913;19;20461;-81
2023/12/20 03:43:16;;;;;;;0.30;0.30;;;;;;;12.70;100.00;99977.78;7385560;19;20010;-80
2023/12/20 03:45:43;;;;;;;1.40;0.50;;;;;;;12.74;100.00;99995.88;7386722;19;20503;-81
2023/12/20 03:48:09;;;;;;;1.08;0.77;;;;;;;12.76;100.00;99987.00;7388660;19;20353;-81
2023/12/20 03:50:35;;;;;;;3.45;1.55;;;;;;;12.74;100.00;99983.94;7385260;19;20039;-80
2023/12/20 03:53:01;;;;;;;0.10;0.10;;;;;;;12.78;100.00;99990.09;7389216;19;20370;-80
2023/12/20 03:55:27;;;;;;;0.65;0.47;;;;;;;12.80;100.00;99998.75;7387445;19;20479;-80
2023/12/20 03:57:54;;;;;;;0.28;0.28;;;;;;;12.79;100.00;99991.63;7387599;19;20477;-80
2023/12/20 04:00:20;;;;;;;0.10;0.03;;;;;;;12.80;100.00;99996.72;7386776;19;20038;-80
2023/12/20 04:02:46;;;;;;;0.98;0.35;;;;;;;12.84;100.00;100010.53;7386786;19;20070;-81
2023/12/20 04:05:12;;;;;;;0.20;0.20;;;;;;;12.85;100.00;99995.28;7387141;19;20013;-80
2023/12/20 04:07:39;;;;;;;1.23;0.20;;;;;;;12.87;100.00;99992.75;7385903;19;20114;-81
2023/12/20 04:10:05;;;;;;;0.25;0.25;;;;;;;12.90;100.00;99989.00;7391957;19;20017;-81
2023/12/20 04:12:32;;;;;;;0.10;0.10;;;;;;;12.94;100.00;99981.94;7393196;19;20039;-80
2023/12/20 04:14:58;;;;;;;0.10;0.10;;;;;;;12.34;100.00;99978.28;7397026;19;20010;-81
2023/12/20 04:17:25;;;;;;;2.75;1.00;;;;;;;12.93;100.00;99965.63;7393586;19;20022;-80
2023/12/20 04:19:51;;;;;;;1.40;0.43;;;;;;;12.97;100.00;99957.06;7393685;19;20007;-81
2023/12/20 04:22:18;;;;;;;9.40;0.95;;;;;;;13.06;100.00;99954.91;7391536;19;20011;-80
2023/12/20 04:24:45;;;;;;;3.25;0.77;;;;;;;13.10;100.00;99961.06;7393874;19;20482;-81
2023/12/20 04:27:11;;;;;;;0.95;0.15;;;;;;;13.09;100.00;99953.94;7394851;19;20393;-80
2023/12/20 04:29:37;;;;;;;3.72;1.00;;;;;;;13.10;100.00;99952.69;7395237;19;20047;-81
2023/12/20 04:32:04;;;;;;;0.10;0.10;;;;;;;13.14;100.00;99949.66;7394967;19;20017;-81
2023/12/20 04:34:31;;;;;;;12.35;0.80;;;;;;;13.13;100.00;99946.09;7392684;19;20010;-80
2023/12/20 04:36:57;;;;;;;1.95;0.65;;;;;;;13.12;100.00;99952.97;7393315;19;20018;-81
2023/12/20 04:39:23;;;;;;;0.50;0.15;;;;;;;13.11;100.00;99940.22;7394473;19;20021;-80
2023/12/20 04:41:50;;;;;;;0.35;0.35;;;;;;;13.10;100.00;99938.72;7393674;19;20460;-80
2023/12/20 04:44:16;;;;;;;0.28;0.25;;;;;;;13.10;100.00;99952.69;7393090;19;20350;-80
2023/12/20 04:46:42;;;;;;;0.25;0.25;;;;;;;13.08;100.00;99957.97;7393002;19;20002;-80
2023/12/20 04:49:08;;;;;;;0.10;0.00;;;;;;;13.03;100.00;99941.91;7392314;19;20018;-80
2023/12/20 04:51:35;;;;;;;7.32;0.63;;;;;;;13.04;100.00;99951.06;7393491;19;20019;-80
2023/12/20 04:54:02;;;;;;;0.10;0.10;;;;;;;13.04;100.00;99945.47;7394674;19;20029;-80
2023/12/20 04:56:28;;;;;;;0.10;0.08;;;;;;;11.50;100.00;99945.38;7394279;19;20013;-80
2023/12/20 04:58:54;;;;;;;3.53;0.82;;;;;;;12.76;100.00;99943.06;7393895;19;20013;-80
2023/12/20 05:01:21;;;;;;;1.20;0.47;;;;;;;12.36;100.00;99956.22;7394344;19;20410;-80
2023/12/20 05:03:47;;;;;;;7.22;0.73;;;;;;;21.78;100.00;99923.72;7393835;19;20022;-81
2023/12/20 05:06:14;;;;;;;3.35;0.85;;;;;;;36.66;34.00;99913.09;7394639;19;20014;-81
2023/12/20 05:08:40;;;;;;;1.10;0.90;;;;;;;20.70;59.16;99923.50;7393672;19;20012;-81
2023/12/20 05:11:07;;;;;;;0.10;0.10;;;;;;;34.53;34.82;99901.28;7392314;19;20028;-81
2023/12/20 05:13:33;;;;;;;0.10;0.00;;;;;;;39.47;26.59;99885.41;7393654;19;20411;-81
2023/12/20 05:15:59;;;;;;;0.43;0.43;;;;;;;32.82;32.69;99901.03;7393400;19;20014;-81
2023/12/20 05:18:25;;;;;;;0.20;0.20;;;;;;;26.65;37.80;99911.44;7393168;19;20014;-80
2023/12/20 05:20:51;;;;;;;7.68;0.93;;;;;;;35.21;31.38;99897.53;7391811;19;20357;-81
2023/12/20 05:23:17;;;;;;;0.10;0.10;;;;;;;39.44;25.53;99872.16;7393697;19;20018;-80
2023/12/20 05:25:44;;;;;;;0.40;0.40;;;;;;;40.34;24.13;99873.47;7392541;19;20010;-81
2023/12/20 05:28:10;;;;;;;6.07;0.70;;;;;;;39.73;23.46;99886.25;7391231;19;20006;-81
2023/12/20 05:30:36;;;;;;;0.55;0.45;;;;;;;39.74;23.19;99884.84;7390185;19;20453;-79
2023/12/20 05:33:02;;;;;;;8.85;0.50;;;;;;;39.90;23.39;99864.13;7387280;19;20795;-78
2023/12/20 05:35:28;;;;;;;0.10;0.10;;;;;;;39.93;23.19;99860.63;7387830;19;20766;-79
2023/12/20 05:37:54;;;;;;;0.20;0.20;;;;;;;39.80;22.56;99863.84;7389120;19;20419;-78
2023/12/20 05:40:20;;;;;;;0.10;0.10;;;;;;;39.83;22.76;99866.13;7387206;19;20009;-78
2023/12/20 05:42:46;;;;;;;7.03;1.08;;;;;;;39.92;22.19;99870.03;7387154;19;20363;-79
2023/12/20 05:45:12;;;;;;;0.20;0.20;;;;;;;39.96;22.22;99876.72;7388408;19;20018;-79
2023/12/20 05:47:38;;;;;;;0.65;0.50;;;;;;;40.00;22.34;99879.06;7390685;19;20011;-79
2023/12/20 05:50:05;;;;;;;0.75;0.75;;;;;;;39.94;22.04;99867.16;7393364;19;20062;-79
2023/12/20 05:52:31;;;;;;;0.10;0.10;;;;;;;39.76;22.13;99899.47;7390429;19;19994;-79
2023/12/20 05:55:00;;;;;;;3.13;0.63;;;;;;;17.85;61.59;99932.63;7392774;19;20007;-79
2023/12/20 05:57:27;;;;;;;0.52;0.20;;;;;;;14.39;100.00;99939.38;7388213;19;20010;-79
2023/12/20 05:59:53;;;;;;;0.20;0.20;;;;;;;13.41;100.00;99929.63;7391942;19;20007;-79
2023/12/20 06:02:19;;;;;;;0.10;0.10;;;;;;;13.59;100.00;99930.06;7390065;19;20346;-79
2023/12/20 06:04:45;;;;;;;16.90;0.63;;;;;;;13.49;100.00;99930.75;7393099;19;20009;-79
2023/12/20 06:07:13;;;;;;;0.10;0.03;;;;;;;29.32;56.18;99894.03;7392529;19;20017;-79
2023/12/20 06:09:39;;;;;;;0.90;0.30;;;;;;;36.90;30.60;99870.63;7391466;19;20031;-79
2023/12/20 06:12:05;;;;;;;2.47;0.10;;;;;;;37.58;28.95;99858.16;7393102;19;20010;-79
2023/12/20 06:14:31;;;;;;;0.28;0.20;;;;;;;39.10;26.26;99853.56;7391761;19;20018;-79
2023/12/20 06:16:57;;;;;;;0.30;0.28;;;;;;;39.32;25.13;99845.56;7392750;19;20003;-79
2023/12/20 06:19:23;;;;;;;0.10;0.00;;;;;;;27.56;33.15;99869.03;7393731;19;20007;-79
2023/12/20 06:21:50;;;;;;;0.10;0.10;;;;;;;38.67;25.78;99839.72;7390339;19;20455;-79
2023/12/20 06:24:16;;;;;;;3.30;0.95;;;;;;;40.49;23.53;99844.00;7392795;19;20021;-80
2023/12/20 06:26:42;;;;;;;0.10;0.10;;;;;;;41.08;22.55;99849.19;7391106;19;20497;-79
2023/12/20 06:29:08;;;;;;;0.10;0.00;;;;;;;40.38;22.82;99853.88;7393072;19;20374;-80
2023/12/20 06:31:35;;;;;;;3.58;0.52;;;;;;;39.57;23.06;99871.16;7387782;19;20369;-80
2023/12/20 06:34:01;;;;;;;7.38;1.15;;;;;;;38.98;23.04;99856.09;7391208;19;20010;-80
2023/12/20 06:36:27;;;;;;;1.10;0.63;;;;;;;39.02;23.31;99850.38;7388611;19;20003;-80
2023/12/20 06:38:53;;;;;;;0.10;0.00;;;;;;;39.01;23.24;99864.19;7392107;19;20006;-80
2023/12/20 06:41:19;;;;;;;6.65;0.85;;;;;;;21.87;40.42;99891.34;7390887;19;20010;-79
2023/12/20 06:43:46;;;;;;;0.40;0.40;;;;;;;17.03;89.92;99908.53;7390977;19;20019;-80
2023/12/20 06:46:13;;;;;;;0.20;0.20;;;;;;;20.10;54.57;99917.59;7390874;19;20472;-79
2023/12/20 06:48:40;;;;;;;5.43;0.40;;;;;;;15.07;99.95;99936.44;7389429;19;20018;-79
2023/12/20 06:51:06;;;;;;;3.67;0.57;;;;;;;32.80;38.55;99909.56;7390531;19;20026;-80
2023/12/20 06:53:32;;;;;;;0.10;0.00;;;;;;;35.29;29.04;99913.16;7389333;19;20485;-79
2023/12/20 06:55:58;;;;;;;0.75;0.43;;;;;;;17.71;81.81;99949.91;7388551;19;20084;-80
2023/12/20 06:58:24;;;;;;;0.10;0.10;;;;;;;36.27;30.24;99904.81;7388457;19;20033;-79
2023/12/20 07:00:51;;;;;;;7.10;0.73;;;;;;;38.24;26.75;99901.47;7390737;19;20014;-80
2023/12/20 07:03:17;;;;;;;1.85;0.22;;;;;;;38.90;25.67;99891.50;7387632;19;20010;-78
2023/12/20 07:05:44;;;;;;;0.25;0.08;;;;;;;39.09;24.56;99881.22;7389333;19;20027;-80
2023/12/20 07:08:10;;;;;;;2.80;1.00;;;;;;;39.04;24.26;99897.06;7390145;19;20018;-80
2023/12/20 07:10:37;;;;;;;0.10;0.10;;;;;;;21.37;45.12;99912.31;7389016;19;20022;-79
2023/12/20 07:13:03;;;;;;;1.77;0.20;;;;;;;17.66;79.25;99920.50;7389065;19;20019;-80
2023/12/20 07:15:29;;;;;;;0.20;0.20;;;;;;;17.90;81.22;99906.47;7387349;19;20066;-80
2023/12/20 07:17:55;;;;;;;3.40;0.15;;;;;;;17.55;84.87;99914.94;7389730;19;20007;-80
2023/12/20 07:20:21;;;;;;;0.10;0.10;;;;;;;17.73;85.91;99910.72;7387805;19;20398;-79
2023/12/20 07:22:47;;;;;;;0.38;0.38;;;;;;;16.53;97.19;99920.75;7387702;19;20058;-79
2023/12/20 07:25:14;;;;;;;0.10;0.10;;;;;;;9.89;100.00;99943.94;7389426;19;20010;-78
2023/12/20 07:27:40;;;;;;;0.82;0.57;;;;;;;11.31;100.00;99946.78;7385930;19;20046;-79
2023/12/20 07:30:07;;;;;;;13.65;0.63;;;;;;;11.06;100.00;99934.16;7389397;19;20362;-79
2023/12/20 07:32:33;;;;;;;0.10;0.00;;;;;;;9.35;100.00;99924.59;7387884;19;20061;-78
2023/12/20 07:34:59;;;;;;;0.60;0.47;;;;;;;8.68;100.00;99914.44;7390005;19;20477;-79
2023/12/20 07:37:25;;;;;;;1.27;0.30;;;;;;;11.71;100.00;99932.34;7387090;19;20026;-79
2023/12/20 07:39:51;;;;;;;0.10;0.10;;;;;;;11.80;100.00;99946.94;7389013;19;20021;-79
2023/12/20 07:42:17;;;;;;;14.60;0.90;;;;;;;9.85;100.00;99943.34;7386902;19;20007;-78
2023/12/20 07:44:43;;;;;;;0.10;0.10;;;;;;;8.85;100.00;99943.44;7392243;19;19998;-79
2023/12/20 07:47:11;;;;;;;0.10;0.10;;;;;;;11.71;100.00;99952.66;7396118;19;20010;-79
2023/12/20 07:49:38;;;;;;;4.78;0.35;;;;;;;9.65;100.00;99948.63;7396413;19;20022;-79
2023/12/20 07:52:04;;;;;;;0.10;0.10;;;;;;;11.89;100.00;99937.72;7397453;19;20494;-79
2023/12/20 07:54:30;;;;;;;0.30;0.30;;;;;;;8.75;100.00;99943.91;7396759;19;20011;-78
2023/12/20 07:56:57;;;;;;;0.20;0.13;;;;;;;8.79;100.00;99934.16;7395777;19;20010;-78
2023/12/20 07:59:23;;;;;;;7.10;0.30;;;;;;;9.00;100.00;99936.03;7392991;19;20018;-78
2023/12/20 08:01:49;;;;;;;0.63;0.63;;;;;;;9.05;100.00;99924.28;7393337;19;20011;-77
2023/12/20 08:04:15;;;;;;;3.40;0.70;;;;;;;8.56;100.00;99943.06;7395422;19;20003;-79
2023/12/20 08:06:41;;;;;;;0.10;0.10;;;;;;;9.35;100.00;99941.28;7393184;19;20470;-78
2023/12/20 08:09:07;;;;;;;0.30;0.25;;;;;;;9.50;100.00;99947.72;7393075;19;20062;-79
2023/12/20 08:11:33;;;;;;;4.72;0.20;;;;;;;8.97;100.00;99948.06;7395218;19;20014;-78
2023/12/20 08:14:00;;;;;;;0.10;0.05;;;;;;;9.76;100.00;99946.13;7394151;19;20027;-78
2023/12/20 08:16:26;;;;;;;0.68;0.47;;;;;;;10.05;100.00;99946.34;7393896;19;20082;-78
2023/12/20 08:18:52;;;;;;;1.65;0.95;;;;;;;10.12;100.00;99951.59;7397870;19;20010;-79
2023/12/20 08:21:20;;;;;;;1.98;0.43;;;;;;;10.11;100.00;99955.63;7394879;19;20342;-79
2023/12/20 08:23:47;;;;;;;4.45;1.20;;;;;;;22.74;65.99;99940.66;7394624;19;20010;-79
2023/12/20 08:26:13;;;;;;;2.53;1.17;;;;;;;12.01;100.00;99967.34;7395953;19;20045;-78
2023/12/20 08:28:39;;;;;;;5.00;0.77;;;;;;;10.64;100.00;99964.94;7393235;19;19999;-79
2023/12/20 08:31:05;;;;;;;0.10;0.00;;;;;;;28.51;68.00;99928.03;7395418;19;20066;-79
2023/12/20 08:33:31;;;;;;;7.03;1.55;;;;;;;34.38;38.96;99924.31;7394669;19;20035;-78
2023/12/20 08:35:58;;;;;;;3.28;1.05;;;;;;;19.68;73.43;99953.97;7394186;19;20419;-78
2023/12/20 08:38:24;;;;;;;0.90;0.70;;;;;;;12.58;100.00;99962.88;7392599;19;20011;-78
2023/12/20 08:40:50;;;;;;;6.97;1.30;;;;;;;11.04;100.00;99972.13;7392799;19;20009;-79
2023/12/20 08:43:16;;;;;;;1.45;0.40;;;;;;;10.41;100.00;99957.34;7392610;19;20022;-78
2023/12/20 08:45:42;;;;;;;3.08;0.85;;;;;;;10.11;100.00;99955.63;7392565;19;20010;-78
2023/12/20 08:48:08;;;;;;;3.03;0.20;;;;;;;9.88;100.00;99959.06;7393107;19;20006;-77
2023/12/20 08:50:34;;;;;;;1.73;0.30;;;;;;;9.75;100.00;99955.69;7392732;19;20006;-79
2023/12/20 08:53:00;;;;;;;0.10;0.10;;;;;;;9.67;100.00;99960.84;7392495;19;20022;-80
2023/12/20 08:55:28;;;;;;;0.95;0.70;;;;;;;9.62;100.00;99958.66;7392419;19;20056;-79
2023/12/20 08:57:54;;;;;;;2.28;1.10;;;;;;;9.54;100.00;99962.25;7393744;19;20547;-79
2023/12/20 09:00:24;;;;;;;2.92;0.93;;;;;;;9.50;100.00;99950.50;7393202;19;20076;-79
2023/12/20 09:02:50;;;;;;;0.95;0.75;;;;;;;9.45;100.00;99938.00;7390956;19;20002;-79
2023/12/20 09:05:16;;;;;;;0.43;0.20;;;;;;;9.42;100.00;99950.03;7391478;19;20006;-79
2023/12/20 09:07:43;;;;;;;0.52;0.20;;;;;;;9.43;100.00;99957.16;7390989;19;20556;-79
2023/12/20 09:10:09;;;;;;;5.25;0.38;;;;;;;9.43;100.00;99959.16;7394279;19;20010;-80
2023/12/20 09:12:37;;;;;;;0.85;0.25;;;;;;;9.43;100.00;99953.59;7389898;19;20007;-79
2023/12/20 09:15:04;;;;;;;1.13;0.43;;;;;;;9.44;100.00;99950.34;7393985;19;20014;-79
2023/12/20 09:17:30;;;;;;;0.10;0.00;;;;;;;9.45;100.00;99948.34;7392383;19;20014;-80
2023/12/20 09:19:56;;;;;;;0.30;0.30;;;;;;;9.49;100.00;99948.97;7391430;19;20015;-80
2023/12/20 09:22:23;;;;;;;4.68;0.28;;;;;;;9.49;100.00;99935.84;7391897;19;20018;-80
2023/12/20 09:24:49;;;;;;;9.95;0.30;;;;;;;9.50;100.00;99933.84;7392661;19;20489;-79
2023/12/20 09:27:15;;;;;;;0.30;0.30;;;;;;;9.47;100.00;99929.97;7392394;19;20007;-79
2023/12/20 09:29:41;;;;;;;0.20;0.13;;;;;;;9.62;100.00;99928.09;7390992;19;20473;-78
2023/12/20 09:32:07;;;;;;;0.45;0.17;;;;;;;9.89;100.00;99918.91;7393106;19;20007;-79
2023/12/20 09:34:34;;;;;;;0.43;0.43;;;;;;;10.05;100.00;99924.06;7390967;19;20015;-79
2023/12/20 09:37:00;;;;;;;1.08;0.40;;;;;;;9.94;100.00;99929.38;7391026;19;20006;-79
2023/12/20 09:39:26;;;;;;;12.52;0.40;;;;;;;9.99;100.00;99919.63;7392626;19;20459;-79
2023/12/20 09:42:06;;;;;;;0.63;0.63;;;;;;;10.13;100.00;99916.97;7393490;19;20460;-79
2023/12/20 09:44:34;;;;;;;0.35;0.30;;;;;;;10.15;100.00;99911.72;7392332;19;20010;-79
2023/12/20 09:47:02;;;;;;;0.20;0.20;;;;;;;10.18;100.00;99902.41;7392351;19;20476;-79
2023/12/20 09:49:30;;;;;;;1.23;0.80;;;;;;;10.22;100.00;99897.44;7392052;19;20018;-79
2023/12/20 09:51:56;;;;;;;0.17;0.17;;;;;;;12.65;100.00;99903.03;7391557;19;20003;-80
2023/12/20 09:54:23;;;;;;;0.40;0.30;;;;;;;31.38;53.81;99876.13;7392817;19;20017;-80
2023/12/20 09:56:50;;;;;;;9.85;1.65;;;;;;;33.97;41.98;99855.63;7389973;19;20011;-79
2023/12/20 09:59:16;;;;;;;1.90;0.22;;;;;;;34.88;38.24;99872.72;7389729;19;20707;-82
2023/12/20 10:01:42;;;;;;;0.80;0.47;;;;;;;35.34;35.89;99876.47;7391614;19;20545;-81
2023/12/20 10:04:12;;;;;;;1.15;0.57;;;;;;;35.56;34.53;99878.28;7393268;19;20010;-81
2023/12/20 10:06:42;;;;;;;4.47;0.47;;;;;;;27.39;71.28;99889.09;7389767;19;20014;-81
2023/12/20 10:09:10;;;;;;;0.13;0.13;;;;;;;34.47;38.62;99874.16;7392556;19;20017;-81
2023/12/20 10:11:37;;;;;;;1.30;0.68;;;;;;;35.35;34.62;99881.59;7391179;19;20564;-81
2023/12/20 10:14:04;;;;;;;0.30;0.22;;;;;;;35.75;33.32;99892.28;7390352;19;20024;-81
2023/12/20 10:16:32;;;;;;;0.10;0.10;;;;;;;35.92;32.22;99881.41;7390426;19;20062;-83
2023/12/20 10:18:59;;;;;;;0.10;0.10;;;;;;;35.93;31.68;99888.72;7392359;19;20015;-81
2023/12/20 10:21:26;;;;;;;0.10;0.10;;;;;;;35.74;31.28;99890.75;7391392;19;20010;-81
2023/12/20 10:23:54;;;;;;;0.57;0.47;;;;;;;35.55;30.96;99873.91;7392143;19;20349;-82
2023/12/20 10:26:24;;;;;;;0.10;0.10;;;;;;;40.62;26.62;99862.59;7391408;19;19999;-81
2023/12/20 10:28:52;;;;;;;0.75;0.32;;;;;;;26.16;38.92;99890.19;7389546;19;20022;-81
2023/12/20 10:31:38;;;;;;;0.13;0.13;;;;;;;30.53;35.20;99871.84;7389744;19;20025;-81
2023/12/20 10:34:04;;;;;;;0.10;0.10;;;;;;;26.96;37.42;99881.97;7390688;19;20015;-81
2023/12/20 10:36:33;;;;;;;0.10;0.10;;;;;;;36.07;28.40;99866.19;7390618;19;20023;-81
2023/12/20 10:38:59;;;;;;;0.10;0.10;;;;;;;35.13;29.37;99857.34;7389761;19;20010;-81
2023/12/20 10:41:32;;;;;;;1.85;0.30;;;;;;;35.90;28.05;99852.34;7388810;19;20082;-82
2023/12/20 10:44:05;;;;;;;0.10;0.00;;;;;;;15.34;100.00;99881.66;7391387;19;20439;-82
2023/12/20 10:46:32;;;;;;;0.10;0.00;;;;;;;12.55;100.00;99876.50;7389336;19;20051;-81
2023/12/20 10:48:59;;;;;;;0.10;0.00;;;;;;;10.56;100.00;99885.78;7388764;19;20023;-81
2023/12/20 10:51:30;;;;;;;0.10;0.10;;;;;;;9.26;100.00;99875.34;7388772;19;20018;-82
2023/12/20 10:53:56;;;;;;;0.10;0.00;;;;;;;8.87;100.00;99888.22;7390818;19;20066;-81
2023/12/20 10:56:26;;;;;;;1.65;0.40;;;;;;;8.56;100.00;99876.47;7388926;19;20015;-82
2023/12/20 10:58:52;;;;;;;0.20;0.20;;;;;;;8.38;100.00;99873.69;7390417;19;20397;-82
2023/12/20 11:01:20;;;;;;;0.43;0.10;;;;;;;8.40;100.00;99860.13;7387338;19;20010;-81
2023/12/20 11:03:51;;;;;;;3.65;0.22;;;;;;;8.45;100.00;99845.59;7389896;19;20009;-81
2023/12/20 11:06:47;;;;;;;0.10;0.10;;;;;;;8.21;100.00;99834.28;7387480;19;20362;-80
2023/12/20 11:09:19;;;;;;;2.17;0.30;;;;;;;8.22;100.00;99826.75;7390293;19;20006;-81
2023/12/20 11:12:19;;;;;;;1.05;0.25;;;;;;;8.49;100.00;99823.28;7388271;19;20031;-81
2023/12/20 11:14:51;;;;;;;0.85;0.25;;;;;;;9.02;100.00;99827.25;7386462;19;20006;-81
2023/12/20 11:17:18;;;;;;;3.30;0.35;;;;;;;8.41;100.00;99817.25;7387824;19;20510;-81
2023/12/20 11:19:53;;;;;;;0.63;0.43;;;;;;;12.10;100.00;99808.91;7389539;19;20007;-81
2023/12/20 11:22:26;;;;;;;3.40;0.57;;;;;;;9.60;100.00;99807.44;7390023;19;20525;-81
2023/12/20 11:24:53;;;;;;;0.55;0.43;;;;;;;8.76;100.00;99804.59;7389935;19;20018;-80
2023/12/20 11:27:20;;;;;;;0.20;0.20;;;;;;;25.44;100.00;99781.94;7388263;19;20086;-81